sensor_id;sensor_type;location;lat;lon;timestamp;P1;durP1;ratioP1;P2;durP2;ratioP2
72611;SDS011;60655;52.182;4.474;2024-02-15T00:01:12;16.65;;;4.07;;
72611;SDS011;60655;52.182;4.474;2024-02-15T00:03:13;19.55;;;3.85;;
72611;SDS011;60655;52.182;4.474;2024-02-15T00:05:14;17.20;;;3.80;;
72611;SDS011;60655;52.182;4.474;2024-02-15T00:07:17;18.73;;;4.10;;
72611;SDS011;60655;52.182;4.474;2024-02-15T00:09:22;17.10;;;3.72;;
72611;SDS011;60655;52.182;4.474;2024-02-15T00:11:23;18.98;;;3.97;;
72611;SDS011;60655;52.182;4.474;2024-02-15T00:13:24;18.35;;;3.78;;
72611;SDS011;60655;52.182;4.474;2024-02-15T00:15:25;16.17;;;3.85;;
72611;SDS011;60655;52.182;4.474;2024-02-15T00:17:27;14.57;;;3.08;;
72611;SDS011;60655;52.182;4.474;2024-02-15T00:19:29;14.15;;;3.15;;
72611;SDS011;60655;52.182;4.474;2024-02-15T00:21:31;17.35;;;3.38;;
72611;SDS011;60655;52.182;4.474;2024-02-15T00:23:31;14.00;;;2.67;;
72611;SDS011;60655;52.182;4.474;2024-02-15T00:25:33;17.88;;;3.53;;
72611;SDS011;60655;52.182;4.474;2024-02-15T00:27:34;13.77;;;3.10;;
72611;SDS011;60655;52.182;4.474;2024-02-15T00:29:37;11.85;;;2.60;;
72611;SDS011;60655;52.182;4.474;2024-02-15T00:31:39;14.40;;;2.90;;
72611;SDS011;60655;52.182;4.474;2024-02-15T00:33:40;11.23;;;2.65;;
72611;SDS011;60655;52.182;4.474;2024-02-15T00:35:41;13.23;;;2.83;;
72611;SDS011;60655;52.182;4.474;2024-02-15T00:37:42;14.20;;;2.88;;
72611;SDS011;60655;52.182;4.474;2024-02-15T00:39:43;12.57;;;3.08;;
72611;SDS011;60655;52.182;4.474;2024-02-15T00:41:44;17.85;;;2.97;;
72611;SDS011;60655;52.182;4.474;2024-02-15T00:43:45;16.92;;;3.40;;
72611;SDS011;60655;52.182;4.474;2024-02-15T00:45:46;11.65;;;2.53;;
72611;SDS011;60655;52.182;4.474;2024-02-15T00:47:47;17.05;;;2.97;;
72611;SDS011;60655;52.182;4.474;2024-02-15T00:49:48;12.13;;;2.88;;
72611;SDS011;60655;52.182;4.474;2024-02-15T00:51:50;16.83;;;3.35;;
72611;SDS011;60655;52.182;4.474;2024-02-15T00:53:51;9.32;;;3.35;;
72611;SDS011;60655;52.182;4.474;2024-02-15T00:55:52;10.55;;;3.00;;
72611;SDS011;60655;52.182;4.474;2024-02-15T00:57:53;16.45;;;3.65;;
72611;SDS011;60655;52.182;4.474;2024-02-15T00:59:54;15.52;;;3.45;;
72611;SDS011;60655;52.182;4.474;2024-02-15T01:01:55;14.00;;;3.22;;
72611;SDS011;60655;52.182;4.474;2024-02-15T01:03:56;12.38;;;3.50;;
72611;SDS011;60655;52.182;4.474;2024-02-15T01:05:57;10.70;;;3.25;;
72611;SDS011;60655;52.182;4.474;2024-02-15T01:07:58;13.25;;;3.55;;
72611;SDS011;60655;52.182;4.474;2024-02-15T01:09:59;12.27;;;3.58;;
72611;SDS011;60655;52.182;4.474;2024-02-15T01:12:00;12.05;;;3.97;;
72611;SDS011;60655;52.182;4.474;2024-02-15T01:14:00;13.35;;;4.13;;
72611;SDS011;60655;52.182;4.474;2024-02-15T01:16:01;12.93;;;3.67;;
72611;SDS011;60655;52.182;4.474;2024-02-15T01:18:05;13.57;;;4.40;;
72611;SDS011;60655;52.182;4.474;2024-02-15T01:20:06;9.05;;;4.05;;
72611;SDS011;60655;52.182;4.474;2024-02-15T01:22:07;16.45;;;3.53;;
72611;SDS011;60655;52.182;4.474;2024-02-15T01:24:08;13.40;;;4.82;;
72611;SDS011;60655;52.182;4.474;2024-02-15T01:26:09;15.27;;;4.53;;
72611;SDS011;60655;52.182;4.474;2024-02-15T01:28:12;15.85;;;4.90;;
72611;SDS011;60655;52.182;4.474;2024-02-15T01:30:13;19.60;;;5.78;;
72611;SDS011;60655;52.182;4.474;2024-02-15T01:32:14;15.20;;;5.30;;
72611;SDS011;60655;52.182;4.474;2024-02-15T01:34:15;16.50;;;5.75;;
72611;SDS011;60655;52.182;4.474;2024-02-15T01:36:16;18.77;;;5.57;;
72611;SDS011;60655;52.182;4.474;2024-02-15T01:38:18;15.95;;;5.78;;
72611;SDS011;60655;52.182;4.474;2024-02-15T01:40:19;15.73;;;6.28;;
72611;SDS011;60655;52.182;4.474;2024-02-15T01:42:20;16.73;;;6.53;;
72611;SDS011;60655;52.182;4.474;2024-02-15T01:44:21;20.45;;;6.28;;
72611;SDS011;60655;52.182;4.474;2024-02-15T01:46:25;16.67;;;6.13;;
72611;SDS011;60655;52.182;4.474;2024-02-15T01:48:26;15.80;;;5.97;;
72611;SDS011;60655;52.182;4.474;2024-02-15T01:50:27;14.43;;;6.05;;
72611;SDS011;60655;52.182;4.474;2024-02-15T01:52:28;16.02;;;6.72;;
72611;SDS011;60655;52.182;4.474;2024-02-15T01:54:32;15.18;;;6.32;;
72611;SDS011;60655;52.182;4.474;2024-02-15T01:56:34;19.20;;;6.57;;
72611;SDS011;60655;52.182;4.474;2024-02-15T01:58:36;18.60;;;6.07;;
72611;SDS011;60655;52.182;4.474;2024-02-15T02:00:40;16.65;;;5.75;;
72611;SDS011;60655;52.182;4.474;2024-02-15T02:02:41;17.80;;;6.07;;
72611;SDS011;60655;52.182;4.474;2024-02-15T02:04:43;14.90;;;5.95;;
72611;SDS011;60655;52.182;4.474;2024-02-15T02:06:44;17.83;;;5.72;;
72611;SDS011;60655;52.182;4.474;2024-02-15T02:08:45;19.42;;;5.82;;
72611;SDS011;60655;52.182;4.474;2024-02-15T02:10:46;17.05;;;5.65;;
72611;SDS011;60655;52.182;4.474;2024-02-15T02:12:47;13.45;;;5.43;;
72611;SDS011;60655;52.182;4.474;2024-02-15T02:14:48;18.35;;;5.70;;
72611;SDS011;60655;52.182;4.474;2024-02-15T02:16:50;15.18;;;5.95;;
72611;SDS011;60655;52.182;4.474;2024-02-15T02:18:52;19.83;;;5.82;;
72611;SDS011;60655;52.182;4.474;2024-02-15T02:20:53;15.10;;;4.80;;
72611;SDS011;60655;52.182;4.474;2024-02-15T02:22:56;17.38;;;5.38;;
72611;SDS011;60655;52.182;4.474;2024-02-15T02:25:07;14.27;;;5.20;;
72611;SDS011;60655;52.182;4.474;2024-02-15T02:27:09;15.30;;;4.68;;
72611;SDS011;60655;52.182;4.474;2024-02-15T02:29:12;14.55;;;5.28;;
72611;SDS011;60655;52.182;4.474;2024-02-15T02:31:14;16.58;;;5.20;;
72611;SDS011;60655;52.182;4.474;2024-02-15T02:33:15;14.88;;;4.82;;
72611;SDS011;60655;52.182;4.474;2024-02-15T02:35:22;13.98;;;4.57;;
72611;SDS011;60655;52.182;4.474;2024-02-15T02:37:24;14.80;;;5.07;;
72611;SDS011;60655;52.182;4.474;2024-02-15T02:39:25;11.43;;;4.50;;
72611;SDS011;60655;52.182;4.474;2024-02-15T02:41:27;16.67;;;4.80;;
72611;SDS011;60655;52.182;4.474;2024-02-15T02:43:28;14.07;;;4.57;;
72611;SDS011;60655;52.182;4.474;2024-02-15T02:45:29;17.73;;;4.30;;
72611;SDS011;60655;52.182;4.474;2024-02-15T02:47:30;15.93;;;4.45;;
72611;SDS011;60655;52.182;4.474;2024-02-15T02:49:31;15.98;;;4.05;;
72611;SDS011;60655;52.182;4.474;2024-02-15T02:51:32;13.63;;;3.78;;
72611;SDS011;60655;52.182;4.474;2024-02-15T02:53:33;14.60;;;3.85;;
72611;SDS011;60655;52.182;4.474;2024-02-15T02:55:34;13.38;;;3.83;;
72611;SDS011;60655;52.182;4.474;2024-02-15T02:57:35;14.55;;;3.75;;
72611;SDS011;60655;52.182;4.474;2024-02-15T02:59:39;11.82;;;3.35;;
72611;SDS011;60655;52.182;4.474;2024-02-15T03:01:40;12.05;;;3.25;;
72611;SDS011;60655;52.182;4.474;2024-02-15T03:03:41;13.55;;;3.47;;
72611;SDS011;60655;52.182;4.474;2024-02-15T03:05:43;9.73;;;3.17;;
72611;SDS011;60655;52.182;4.474;2024-02-15T03:07:44;13.90;;;3.45;;
72611;SDS011;60655;52.182;4.474;2024-02-15T03:09:46;9.27;;;3.70;;
72611;SDS011;60655;52.182;4.474;2024-02-15T03:11:47;12.63;;;3.50;;
72611;SDS011;60655;52.182;4.474;2024-02-15T03:13:48;11.98;;;3.58;;
72611;SDS011;60655;52.182;4.474;2024-02-15T03:15:49;19.20;;;3.90;;
72611;SDS011;60655;52.182;4.474;2024-02-15T03:17:51;15.00;;;3.50;;
72611;SDS011;60655;52.182;4.474;2024-02-15T03:19:52;14.00;;;3.35;;
72611;SDS011;60655;52.182;4.474;2024-02-15T03:21:53;12.70;;;3.67;;
72611;SDS011;60655;52.182;4.474;2024-02-15T03:23:54;9.95;;;3.58;;
72611;SDS011;60655;52.182;4.474;2024-02-15T03:25:55;13.85;;;3.42;;
72611;SDS011;60655;52.182;4.474;2024-02-15T03:27:56;14.40;;;3.50;;
72611;SDS011;60655;52.182;4.474;2024-02-15T03:29:58;13.77;;;3.72;;
72611;SDS011;60655;52.182;4.474;2024-02-15T03:32:01;17.15;;;3.63;;
72611;SDS011;60655;52.182;4.474;2024-02-15T03:34:04;17.67;;;3.90;;
72611;SDS011;60655;52.182;4.474;2024-02-15T03:36:05;12.63;;;3.83;;
72611;SDS011;60655;52.182;4.474;2024-02-15T03:38:06;17.30;;;4.30;;
72611;SDS011;60655;52.182;4.474;2024-02-15T03:40:08;10.75;;;3.58;;
72611;SDS011;60655;52.182;4.474;2024-02-15T03:42:09;13.18;;;3.55;;
72611;SDS011;60655;52.182;4.474;2024-02-15T03:44:11;15.75;;;4.50;;
72611;SDS011;60655;52.182;4.474;2024-02-15T03:46:13;13.30;;;3.88;;
72611;SDS011;60655;52.182;4.474;2024-02-15T03:48:14;14.60;;;4.13;;
72611;SDS011;60655;52.182;4.474;2024-02-15T03:50:16;13.63;;;5.10;;
72611;SDS011;60655;52.182;4.474;2024-02-15T03:52:17;11.68;;;4.70;;
72611;SDS011;60655;52.182;4.474;2024-02-15T03:54:18;14.00;;;5.40;;
72611;SDS011;60655;52.182;4.474;2024-02-15T03:56:19;16.42;;;5.32;;
72611;SDS011;60655;52.182;4.474;2024-02-15T03:58:22;15.07;;;5.03;;
72611;SDS011;60655;52.182;4.474;2024-02-15T04:00:23;14.50;;;4.60;;
72611;SDS011;60655;52.182;4.474;2024-02-15T04:02:25;16.48;;;6.18;;
72611;SDS011;60655;52.182;4.474;2024-02-15T04:04:30;13.73;;;5.05;;
72611;SDS011;60655;52.182;4.474;2024-02-15T04:06:31;16.63;;;6.10;;
72611;SDS011;60655;52.182;4.474;2024-02-15T04:08:34;16.05;;;6.10;;
72611;SDS011;60655;52.182;4.474;2024-02-15T04:10:39;11.65;;;5.55;;
72611;SDS011;60655;52.182;4.474;2024-02-15T04:12:40;12.35;;;5.90;;
72611;SDS011;60655;52.182;4.474;2024-02-15T04:14:44;18.17;;;6.60;;
72611;SDS011;60655;52.182;4.474;2024-02-15T04:16:45;11.65;;;5.55;;
72611;SDS011;60655;52.182;4.474;2024-02-15T04:18:46;11.15;;;5.88;;
72611;SDS011;60655;52.182;4.474;2024-02-15T04:20:48;13.70;;;5.85;;
72611;SDS011;60655;52.182;4.474;2024-02-15T04:22:49;12.45;;;5.93;;
72611;SDS011;60655;52.182;4.474;2024-02-15T04:24:50;10.60;;;5.75;;
72611;SDS011;60655;52.182;4.474;2024-02-15T04:26:51;13.77;;;6.00;;
72611;SDS011;60655;52.182;4.474;2024-02-15T04:28:53;12.10;;;5.53;;
72611;SDS011;60655;52.182;4.474;2024-02-15T04:30:54;11.50;;;5.63;;
72611;SDS011;60655;52.182;4.474;2024-02-15T04:32:56;12.80;;;6.07;;
72611;SDS011;60655;52.182;4.474;2024-02-15T04:34:57;13.30;;;6.70;;
72611;SDS011;60655;52.182;4.474;2024-02-15T04:36:57;14.07;;;7.15;;
72611;SDS011;60655;52.182;4.474;2024-02-15T04:38:59;15.32;;;7.22;;
72611;SDS011;60655;52.182;4.474;2024-02-15T04:41:03;16.38;;;8.60;;
72611;SDS011;60655;52.182;4.474;2024-02-15T04:45:11;16.55;;;8.68;;
72611;SDS011;60655;52.182;4.474;2024-02-15T04:47:14;16.60;;;8.85;;
72611;SDS011;60655;52.182;4.474;2024-02-15T04:49:15;20.40;;;9.43;;
72611;SDS011;60655;52.182;4.474;2024-02-15T04:51:16;20.63;;;10.48;;
72611;SDS011;60655;52.182;4.474;2024-02-15T04:53:17;22.90;;;11.13;;
72611;SDS011;60655;52.182;4.474;2024-02-15T04:55:18;22.98;;;11.88;;
72611;SDS011;60655;52.182;4.474;2024-02-15T04:57:19;20.70;;;11.10;;
72611;SDS011;60655;52.182;4.474;2024-02-15T04:59:20;21.60;;;11.27;;
72611;SDS011;60655;52.182;4.474;2024-02-15T05:01:24;19.27;;;10.98;;
72611;SDS011;60655;52.182;4.474;2024-02-15T05:03:25;21.02;;;10.80;;
72611;SDS011;60655;52.182;4.474;2024-02-15T05:05:26;26.25;;;11.95;;
72611;SDS011;60655;52.182;4.474;2024-02-15T05:07:29;20.15;;;11.38;;
72611;SDS011;60655;52.182;4.474;2024-02-15T05:09:30;24.05;;;11.57;;
72611;SDS011;60655;52.182;4.474;2024-02-15T05:11:31;25.67;;;12.30;;
72611;SDS011;60655;52.182;4.474;2024-02-15T05:13:32;25.83;;;11.45;;
72611;SDS011;60655;52.182;4.474;2024-02-15T05:15:33;21.75;;;11.00;;
72611;SDS011;60655;52.182;4.474;2024-02-15T05:17:34;24.73;;;11.48;;
72611;SDS011;60655;52.182;4.474;2024-02-15T05:19:35;25.90;;;12.52;;
72611;SDS011;60655;52.182;4.474;2024-02-15T05:21:36;27.42;;;11.70;;
72611;SDS011;60655;52.182;4.474;2024-02-15T05:23:38;24.48;;;11.80;;
72611;SDS011;60655;52.182;4.474;2024-02-15T05:25:42;23.45;;;11.82;;
72611;SDS011;60655;52.182;4.474;2024-02-15T05:27:44;20.80;;;11.13;;
72611;SDS011;60655;52.182;4.474;2024-02-15T05:29:47;23.63;;;11.75;;
72611;SDS011;60655;52.182;4.474;2024-02-15T05:31:48;21.55;;;11.50;;
72611;SDS011;60655;52.182;4.474;2024-02-15T05:33:51;25.73;;;11.25;;
72611;SDS011;60655;52.182;4.474;2024-02-15T05:35:52;25.02;;;10.88;;
72611;SDS011;60655;52.182;4.474;2024-02-15T05:37:53;21.23;;;9.95;;
72611;SDS011;60655;52.182;4.474;2024-02-15T05:39:54;21.83;;;10.82;;
72611;SDS011;60655;52.182;4.474;2024-02-15T05:41:55;24.73;;;11.98;;
72611;SDS011;60655;52.182;4.474;2024-02-15T05:44:01;24.45;;;11.20;;
72611;SDS011;60655;52.182;4.474;2024-02-15T05:46:05;25.77;;;11.35;;
72611;SDS011;60655;52.182;4.474;2024-02-15T05:48:09;25.88;;;11.55;;
72611;SDS011;60655;52.182;4.474;2024-02-15T05:50:12;24.20;;;11.05;;
72611;SDS011;60655;52.182;4.474;2024-02-15T05:52:15;22.45;;;11.32;;
72611;SDS011;60655;52.182;4.474;2024-02-15T05:54:19;21.38;;;10.60;;
72611;SDS011;60655;52.182;4.474;2024-02-15T05:56:20;23.73;;;11.70;;
72611;SDS011;60655;52.182;4.474;2024-02-15T05:58:21;22.80;;;10.63;;
72611;SDS011;60655;52.182;4.474;2024-02-15T06:00:22;23.05;;;10.82;;
72611;SDS011;60655;52.182;4.474;2024-02-15T06:02:22;23.02;;;10.35;;
72611;SDS011;60655;52.182;4.474;2024-02-15T06:04:23;23.52;;;10.50;;
72611;SDS011;60655;52.182;4.474;2024-02-15T06:06:25;20.90;;;10.98;;
72611;SDS011;60655;52.182;4.474;2024-02-15T06:08:27;27.40;;;11.05;;
72611;SDS011;60655;52.182;4.474;2024-02-15T06:10:31;21.00;;;9.90;;
72611;SDS011;60655;52.182;4.474;2024-02-15T06:12:32;23.80;;;10.32;;
72611;SDS011;60655;52.182;4.474;2024-02-15T06:14:33;17.92;;;10.23;;
72611;SDS011;60655;52.182;4.474;2024-02-15T06:16:41;22.02;;;10.57;;
72611;SDS011;60655;52.182;4.474;2024-02-15T06:18:43;18.52;;;10.43;;
72611;SDS011;60655;52.182;4.474;2024-02-15T06:20:44;20.95;;;10.52;;
72611;SDS011;60655;52.182;4.474;2024-02-15T06:22:47;17.73;;;9.32;;
72611;SDS011;60655;52.182;4.474;2024-02-15T06:24:48;23.48;;;10.52;;
72611;SDS011;60655;52.182;4.474;2024-02-15T06:26:49;18.85;;;9.63;;
72611;SDS011;60655;52.182;4.474;2024-02-15T06:28:54;18.05;;;9.90;;
72611;SDS011;60655;52.182;4.474;2024-02-15T06:31:13;19.63;;;9.32;;
72611;SDS011;60655;52.182;4.474;2024-02-15T06:33:33;18.40;;;9.57;;
72611;SDS011;60655;52.182;4.474;2024-02-15T06:35:53;17.55;;;8.40;;
72611;SDS011;60655;52.182;4.474;2024-02-15T06:38:12;18.75;;;8.15;;
72611;SDS011;60655;52.182;4.474;2024-02-15T06:40:32;15.30;;;7.63;;
72611;SDS011;60655;52.182;4.474;2024-02-15T06:42:33;17.15;;;7.90;;
72611;SDS011;60655;52.182;4.474;2024-02-15T06:44:34;17.60;;;8.00;;
72611;SDS011;60655;52.182;4.474;2024-02-15T06:46:36;16.95;;;7.63;;
72611;SDS011;60655;52.182;4.474;2024-02-15T06:48:36;17.30;;;7.30;;
72611;SDS011;60655;52.182;4.474;2024-02-15T06:50:37;17.63;;;7.50;;
72611;SDS011;60655;52.182;4.474;2024-02-15T06:52:40;14.20;;;7.78;;
72611;SDS011;60655;52.182;4.474;2024-02-15T06:54:41;14.98;;;6.88;;
72611;SDS011;60655;52.182;4.474;2024-02-15T06:56:42;13.88;;;6.60;;
72611;SDS011;60655;52.182;4.474;2024-02-15T06:58:44;15.82;;;7.38;;
72611;SDS011;60655;52.182;4.474;2024-02-15T07:00:45;15.05;;;7.10;;
72611;SDS011;60655;52.182;4.474;2024-02-15T07:02:46;15.70;;;6.80;;
72611;SDS011;60655;52.182;4.474;2024-02-15T07:04:48;14.40;;;6.82;;
72611;SDS011;60655;52.182;4.474;2024-02-15T07:06:49;12.48;;;6.50;;
72611;SDS011;60655;52.182;4.474;2024-02-15T07:08:52;13.02;;;6.03;;
72611;SDS011;60655;52.182;4.474;2024-02-15T07:10:55;11.02;;;5.55;;
72611;SDS011;60655;52.182;4.474;2024-02-15T07:12:57;15.05;;;5.85;;
72611;SDS011;60655;52.182;4.474;2024-02-15T07:14:58;10.75;;;5.18;;
72611;SDS011;60655;52.182;4.474;2024-02-15T07:16:58;10.75;;;5.43;;
72611;SDS011;60655;52.182;4.474;2024-02-15T07:19:00;10.82;;;5.43;;
72611;SDS011;60655;52.182;4.474;2024-02-15T07:21:01;13.55;;;5.85;;
72611;SDS011;60655;52.182;4.474;2024-02-15T07:23:05;11.65;;;5.57;;
72611;SDS011;60655;52.182;4.474;2024-02-15T07:25:06;13.27;;;5.63;;
72611;SDS011;60655;52.182;4.474;2024-02-15T07:27:07;11.05;;;5.80;;
72611;SDS011;60655;52.182;4.474;2024-02-15T07:29:08;12.02;;;5.78;;
72611;SDS011;60655;52.182;4.474;2024-02-15T07:31:10;12.35;;;5.97;;
72611;SDS011;60655;52.182;4.474;2024-02-15T07:33:14;12.18;;;6.05;;
72611;SDS011;60655;52.182;4.474;2024-02-15T07:35:18;10.63;;;5.75;;
72611;SDS011;60655;52.182;4.474;2024-02-15T07:37:19;11.20;;;5.28;;
72611;SDS011;60655;52.182;4.474;2024-02-15T07:39:20;11.73;;;5.05;;
72611;SDS011;60655;52.182;4.474;2024-02-15T07:41:25;11.45;;;5.53;;
72611;SDS011;60655;52.182;4.474;2024-02-15T07:43:26;12.73;;;5.55;;
72611;SDS011;60655;52.182;4.474;2024-02-15T07:45:28;11.60;;;5.70;;
72611;SDS011;60655;52.182;4.474;2024-02-15T07:47:29;10.77;;;5.20;;
72611;SDS011;60655;52.182;4.474;2024-02-15T07:49:30;11.05;;;5.50;;
72611;SDS011;60655;52.182;4.474;2024-02-15T07:51:31;11.73;;;6.10;;
72611;SDS011;60655;52.182;4.474;2024-02-15T07:53:32;11.77;;;6.15;;
72611;SDS011;60655;52.182;4.474;2024-02-15T07:55:33;12.85;;;6.10;;
72611;SDS011;60655;52.182;4.474;2024-02-15T07:57:34;13.63;;;7.00;;
72611;SDS011;60655;52.182;4.474;2024-02-15T07:59:36;13.32;;;6.30;;
72611;SDS011;60655;52.182;4.474;2024-02-15T08:01:39;12.63;;;6.47;;
72611;SDS011;60655;52.182;4.474;2024-02-15T08:03:41;13.10;;;6.40;;
72611;SDS011;60655;52.182;4.474;2024-02-15T08:05:45;13.32;;;6.82;;
72611;SDS011;60655;52.182;4.474;2024-02-15T08:07:46;12.98;;;6.90;;
72611;SDS011;60655;52.182;4.474;2024-02-15T08:09:47;15.40;;;7.63;;
72611;SDS011;60655;52.182;4.474;2024-02-15T08:11:51;15.80;;;8.05;;
72611;SDS011;60655;52.182;4.474;2024-02-15T08:13:52;15.63;;;7.28;;
72611;SDS011;60655;52.182;4.474;2024-02-15T08:15:55;16.40;;;7.65;;
72611;SDS011;60655;52.182;4.474;2024-02-15T08:17:56;16.35;;;8.07;;
72611;SDS011;60655;52.182;4.474;2024-02-15T08:19:57;14.65;;;7.55;;
72611;SDS011;60655;52.182;4.474;2024-02-15T08:22:02;15.27;;;7.85;;
72611;SDS011;60655;52.182;4.474;2024-02-15T08:24:06;21.25;;;8.27;;
72611;SDS011;60655;52.182;4.474;2024-02-15T08:26:07;15.35;;;7.88;;
72611;SDS011;60655;52.182;4.474;2024-02-15T08:28:08;17.70;;;8.27;;
72611;SDS011;60655;52.182;4.474;2024-02-15T08:30:10;18.13;;;8.30;;
72611;SDS011;60655;52.182;4.474;2024-02-15T08:32:12;21.60;;;9.07;;
72611;SDS011;60655;52.182;4.474;2024-02-15T08:34:15;18.13;;;8.60;;
72611;SDS011;60655;52.182;4.474;2024-02-15T08:36:16;17.63;;;8.77;;
72611;SDS011;60655;52.182;4.474;2024-02-15T08:38:17;19.02;;;8.73;;
72611;SDS011;60655;52.182;4.474;2024-02-15T08:40:19;17.25;;;8.88;;
72611;SDS011;60655;52.182;4.474;2024-02-15T08:42:25;17.27;;;8.13;;
72611;SDS011;60655;52.182;4.474;2024-02-15T08:44:27;16.73;;;8.38;;
72611;SDS011;60655;52.182;4.474;2024-02-15T08:46:29;19.02;;;9.65;;
72611;SDS011;60655;52.182;4.474;2024-02-15T08:48:29;18.02;;;8.48;;
72611;SDS011;60655;52.182;4.474;2024-02-15T08:50:31;21.38;;;9.30;;
72611;SDS011;60655;52.182;4.474;2024-02-15T08:52:32;21.05;;;9.40;;
72611;SDS011;60655;52.182;4.474;2024-02-15T08:54:33;20.45;;;8.95;;
72611;SDS011;60655;52.182;4.474;2024-02-15T08:56:37;20.63;;;9.50;;
72611;SDS011;60655;52.182;4.474;2024-02-15T08:58:38;22.45;;;9.45;;
72611;SDS011;60655;52.182;4.474;2024-02-15T09:00:40;22.50;;;9.60;;
72611;SDS011;60655;52.182;4.474;2024-02-15T09:02:45;17.55;;;8.75;;
72611;SDS011;60655;52.182;4.474;2024-02-15T09:04:46;20.48;;;9.32;;
72611;SDS011;60655;52.182;4.474;2024-02-15T09:06:47;17.30;;;8.02;;
72611;SDS011;60655;52.182;4.474;2024-02-15T09:08:48;17.92;;;8.68;;
72611;SDS011;60655;52.182;4.474;2024-02-15T09:10:49;17.65;;;8.40;;
72611;SDS011;60655;52.182;4.474;2024-02-15T09:12:52;20.55;;;8.73;;
72611;SDS011;60655;52.182;4.474;2024-02-15T09:14:52;21.88;;;9.38;;
72611;SDS011;60655;52.182;4.474;2024-02-15T09:16:53;17.70;;;8.95;;
72611;SDS011;60655;52.182;4.474;2024-02-15T09:18:54;25.20;;;9.05;;
72611;SDS011;60655;52.182;4.474;2024-02-15T09:20:56;20.27;;;8.57;;
72611;SDS011;60655;52.182;4.474;2024-02-15T09:22:56;19.00;;;8.40;;
72611;SDS011;60655;52.182;4.474;2024-02-15T09:24:57;21.88;;;9.23;;
72611;SDS011;60655;52.182;4.474;2024-02-15T09:27:01;19.85;;;9.27;;
72611;SDS011;60655;52.182;4.474;2024-02-15T09:29:03;22.58;;;9.38;;
72611;SDS011;60655;52.182;4.474;2024-02-15T09:31:04;21.52;;;9.27;;
72611;SDS011;60655;52.182;4.474;2024-02-15T09:33:05;25.83;;;9.13;;
72611;SDS011;60655;52.182;4.474;2024-02-15T09:35:06;23.25;;;9.13;;
72611;SDS011;60655;52.182;4.474;2024-02-15T09:37:08;22.77;;;9.30;;
72611;SDS011;60655;52.182;4.474;2024-02-15T09:39:09;18.40;;;8.95;;
72611;SDS011;60655;52.182;4.474;2024-02-15T09:41:14;20.83;;;8.40;;
72611;SDS011;60655;52.182;4.474;2024-02-15T09:43:15;17.23;;;7.95;;
72611;SDS011;60655;52.182;4.474;2024-02-15T09:45:16;20.35;;;8.18;;
72611;SDS011;60655;52.182;4.474;2024-02-15T09:47:18;17.45;;;8.40;;
72611;SDS011;60655;52.182;4.474;2024-02-15T09:49:20;17.65;;;8.45;;
72611;SDS011;60655;52.182;4.474;2024-02-15T09:51:21;20.65;;;8.63;;
72611;SDS011;60655;52.182;4.474;2024-02-15T09:53:23;24.98;;;8.52;;
72611;SDS011;60655;52.182;4.474;2024-02-15T09:55:29;15.30;;;7.88;;
72611;SDS011;60655;52.182;4.474;2024-02-15T09:57:30;17.33;;;7.70;;
72611;SDS011;60655;52.182;4.474;2024-02-15T09:59:35;19.35;;;8.80;;
72611;SDS011;60655;52.182;4.474;2024-02-15T10:01:37;25.13;;;8.68;;
72611;SDS011;60655;52.182;4.474;2024-02-15T10:03:41;18.50;;;8.02;;
72611;SDS011;60655;52.182;4.474;2024-02-15T10:05:42;23.23;;;8.23;;
72611;SDS011;60655;52.182;4.474;2024-02-15T10:07:43;20.35;;;7.97;;
72611;SDS011;60655;52.182;4.474;2024-02-15T10:09:45;18.50;;;8.15;;
72611;SDS011;60655;52.182;4.474;2024-02-15T10:11:56;17.45;;;7.80;;
72611;SDS011;60655;52.182;4.474;2024-02-15T10:14:09;19.38;;;8.55;;
72611;SDS011;60655;52.182;4.474;2024-02-15T10:16:17;15.63;;;7.68;;
72611;SDS011;60655;52.182;4.474;2024-02-15T10:18:19;16.35;;;7.85;;
72611;SDS011;60655;52.182;4.474;2024-02-15T10:20:20;23.92;;;9.13;;
72611;SDS011;60655;52.182;4.474;2024-02-15T10:22:23;20.10;;;9.25;;
72611;SDS011;60655;52.182;4.474;2024-02-15T10:24:24;17.48;;;7.32;;
72611;SDS011;60655;52.182;4.474;2024-02-15T10:26:25;16.10;;;7.80;;
72611;SDS011;60655;52.182;4.474;2024-02-15T10:28:28;19.67;;;7.85;;
72611;SDS011;60655;52.182;4.474;2024-02-15T10:30:29;16.58;;;7.65;;
72611;SDS011;60655;52.182;4.474;2024-02-15T10:32:35;16.67;;;8.02;;
72611;SDS011;60655;52.182;4.474;2024-02-15T10:34:43;18.80;;;7.85;;
72611;SDS011;60655;52.182;4.474;2024-02-15T10:36:45;20.42;;;8.32;;
72611;SDS011;60655;52.182;4.474;2024-02-15T10:38:46;17.02;;;7.90;;
72611;SDS011;60655;52.182;4.474;2024-02-15T10:40:47;19.63;;;7.80;;
72611;SDS011;60655;52.182;4.474;2024-02-15T10:42:48;21.67;;;7.95;;
72611;SDS011;60655;52.182;4.474;2024-02-15T10:44:52;17.63;;;8.15;;
72611;SDS011;60655;52.182;4.474;2024-02-15T10:46:53;18.05;;;8.23;;
72611;SDS011;60655;52.182;4.474;2024-02-15T10:48:54;17.85;;;7.68;;
72611;SDS011;60655;52.182;4.474;2024-02-15T10:50:59;17.00;;;7.47;;
72611;SDS011;60655;52.182;4.474;2024-02-15T10:53:01;17.23;;;8.10;;
72611;SDS011;60655;52.182;4.474;2024-02-15T10:55:17;20.77;;;8.45;;
72611;SDS011;60655;52.182;4.474;2024-02-15T10:57:25;16.15;;;8.27;;
72611;SDS011;60655;52.182;4.474;2024-02-15T10:59:31;18.67;;;8.13;;
72611;SDS011;60655;52.182;4.474;2024-02-15T11:01:35;19.95;;;8.75;;
72611;SDS011;60655;52.182;4.474;2024-02-15T11:03:47;18.25;;;8.65;;
72611;SDS011;60655;52.182;4.474;2024-02-15T11:05:54;18.15;;;8.15;;
72611;SDS011;60655;52.182;4.474;2024-02-15T11:08:04;17.40;;;8.55;;
72611;SDS011;60655;52.182;4.474;2024-02-15T11:10:07;21.08;;;8.30;;
72611;SDS011;60655;52.182;4.474;2024-02-15T11:12:10;21.38;;;8.43;;
72611;SDS011;60655;52.182;4.474;2024-02-15T11:14:28;17.90;;;8.68;;
72611;SDS011;60655;52.182;4.474;2024-02-15T11:16:39;19.05;;;7.72;;
72611;SDS011;60655;52.182;4.474;2024-02-15T11:18:47;16.42;;;7.70;;
72611;SDS011;60655;52.182;4.474;2024-02-15T11:20:49;18.58;;;8.05;;
72611;SDS011;60655;52.182;4.474;2024-02-15T11:22:55;19.05;;;8.70;;
72611;SDS011;60655;52.182;4.474;2024-02-15T11:24:58;18.75;;;8.05;;
72611;SDS011;60655;52.182;4.474;2024-02-15T11:27:00;16.10;;;7.28;;
72611;SDS011;60655;52.182;4.474;2024-02-15T11:29:05;17.73;;;7.10;;
72611;SDS011;60655;52.182;4.474;2024-02-15T11:31:06;16.90;;;6.60;;
72611;SDS011;60655;52.182;4.474;2024-02-15T11:35:30;15.85;;;6.72;;
72611;SDS011;60655;52.182;4.474;2024-02-15T11:39:58;13.75;;;5.78;;
72611;SDS011;60655;52.182;4.474;2024-02-15T11:44:26;9.77;;;4.78;;
72611;SDS011;60655;52.182;4.474;2024-02-15T11:46:28;10.02;;;4.60;;
72611;SDS011;60655;52.182;4.474;2024-02-15T11:48:35;11.38;;;4.40;;
72611;SDS011;60655;52.182;4.474;2024-02-15T11:50:40;13.43;;;4.95;;
72611;SDS011;60655;52.182;4.474;2024-02-15T11:52:41;13.95;;;4.60;;
72611;SDS011;60655;52.182;4.474;2024-02-15T11:54:43;11.73;;;4.20;;
72611;SDS011;60655;52.182;4.474;2024-02-15T11:58:44;11.43;;;3.95;;
72611;SDS011;60655;52.182;4.474;2024-02-15T12:01:02;8.07;;;3.88;;
72611;SDS011;60655;52.182;4.474;2024-02-15T12:03:22;10.07;;;3.85;;
72611;SDS011;60655;52.182;4.474;2024-02-15T12:05:42;10.20;;;3.58;;
72611;SDS011;60655;52.182;4.474;2024-02-15T12:08:02;8.88;;;3.85;;
72611;SDS011;60655;52.182;4.474;2024-02-15T12:12:50;10.20;;;3.58;;
72611;SDS011;60655;52.182;4.474;2024-02-15T12:15:10;11.40;;;4.05;;
72611;SDS011;60655;52.182;4.474;2024-02-15T12:17:29;9.05;;;3.80;;
72611;SDS011;60655;52.182;4.474;2024-02-15T12:19:49;10.30;;;3.60;;
72611;SDS011;60655;52.182;4.474;2024-02-15T12:21:51;9.35;;;3.70;;